sensor_id;sensor_type;location;lat;lon;timestamp;pressure;altitude;pressure_sealevel;temperature;humidity
80853;BME280;70270;43.434;28.338;2024-01-16T00:00:47;98595.34;;;9.19;77.48
80853;BME280;70270;43.434;28.338;2024-01-16T00:03:32;98582.47;;;9.03;77.99
80853;BME280;70270;43.434;28.338;2024-01-16T00:06:16;98615.50;;;9.05;78.77
80853;BME280;70270;43.434;28.338;2024-01-16T00:09:04;98606.00;;;9.03;78.94
80853;BME280;70270;43.434;28.338;2024-01-16T00:11:49;98658.28;;;9.08;78.63
80853;BME280;70270;43.434;28.338;2024-01-16T00:14:36;98627.66;;;9.14;78.99
80853;BME280;70270;43.434;28.338;2024-01-16T00:17:21;98592.84;;;9.06;79.50
80853;BME280;70270;43.434;28.338;2024-01-16T00:20:06;98613.03;;;9.04;80.19
80853;BME280;70270;43.434;28.338;2024-01-16T00:22:51;98571.88;;;8.72;80.17
80853;BME280;70270;43.434;28.338;2024-01-16T00:25:35;98642.69;;;9.10;80.38
80853;BME280;70270;43.434;28.338;2024-01-16T00:28:20;98621.72;;;9.35;79.47
80853;BME280;70270;43.434;28.338;2024-01-16T00:31:07;98617.50;;;9.39;78.59
80853;BME280;70270;43.434;28.338;2024-01-16T00:33:52;98554.69;;;9.14;78.68
80853;BME280;70270;43.434;28.338;2024-01-16T00:36:36;98598.50;;;9.46;77.79
80853;BME280;70270;43.434;28.338;2024-01-16T00:39:21;98606.38;;;9.48;78.27
80853;BME280;70270;43.434;28.338;2024-01-16T00:42:06;98607.63;;;9.33;79.74
80853;BME280;70270;43.434;28.338;2024-01-16T00:44:50;98601.88;;;9.30;80.03
80853;BME280;70270;43.434;28.338;2024-01-16T00:47:34;98592.06;;;9.17;80.89
80853;BME280;70270;43.434;28.338;2024-01-16T00:50:19;98602.50;;;9.14;80.98
80853;BME280;70270;43.434;28.338;2024-01-16T00:53:03;98575.94;;;9.11;80.61
80853;BME280;70270;43.434;28.338;2024-01-16T00:55:48;98474.41;;;8.62;80.54
80853;BME280;70270;43.434;28.338;2024-01-16T00:58:32;98494.34;;;8.61;80.98
80853;BME280;70270;43.434;28.338;2024-01-16T01:01:16;98521.38;;;8.90;79.93
80853;BME280;70270;43.434;28.338;2024-01-16T01:04:01;98453.03;;;8.60;80.41
80853;BME280;70270;43.434;28.338;2024-01-16T01:06:50;98551.69;;;9.22;79.90
80853;BME280;70270;43.434;28.338;2024-01-16T01:09:34;98577.56;;;9.42;79.98
80853;BME280;70270;43.434;28.338;2024-01-16T01:12:19;98595.16;;;9.32;80.21
80853;BME280;70270;43.434;28.338;2024-01-16T01:15:04;98573.81;;;9.43;79.71
80853;BME280;70270;43.434;28.338;2024-01-16T01:17:49;98563.91;;;9.36;79.63
80853;BME280;70270;43.434;28.338;2024-01-16T01:20:33;98422.38;;;8.55;79.86
80853;BME280;70270;43.434;28.338;2024-01-16T01:23:18;98537.34;;;9.22;80.59
80853;BME280;70270;43.434;28.338;2024-01-16T01:26:02;98549.56;;;9.24;80.98
80853;BME280;70270;43.434;28.338;2024-01-16T01:28:47;98554.44;;;9.16;81.00
80853;BME280;70270;43.434;28.338;2024-01-16T01:31:32;98517.63;;;9.03;80.61
80853;BME280;70270;43.434;28.338;2024-01-16T01:34:16;98538.63;;;9.31;81.37
80853;BME280;70270;43.434;28.338;2024-01-16T01:37:01;98553.31;;;9.23;82.01
80853;BME280;70270;43.434;28.338;2024-01-16T01:39:45;98436.63;;;8.62;81.74
80853;BME280;70270;43.434;28.338;2024-01-16T01:42:30;98462.47;;;8.69;82.13
80853;BME280;70270;43.434;28.338;2024-01-16T01:45:14;98549.06;;;9.27;82.11
80853;BME280;70270;43.434;28.338;2024-01-16T01:47:59;98544.69;;;9.15;83.21
80853;BME280;70270;43.434;28.338;2024-01-16T01:50:43;98525.63;;;8.98;83.37
80853;BME280;70270;43.434;28.338;2024-01-16T01:53:30;98529.97;;;8.99;83.76
80853;BME280;70270;43.434;28.338;2024-01-16T01:56:18;98548.13;;;9.10;82.67
80853;BME280;70270;43.434;28.338;2024-01-16T01:59:03;98474.66;;;8.72;82.75
80853;BME280;70270;43.434;28.338;2024-01-16T02:01:50;98506.50;;;9.11;82.41
80853;BME280;70270;43.434;28.338;2024-01-16T02:04:38;98516.31;;;9.35;81.42
80853;BME280;70270;43.434;28.338;2024-01-16T02:07:26;98506.78;;;9.21;81.83
80853;BME280;70270;43.434;28.338;2024-01-16T02:10:11;98404.09;;;8.68;81.58
80853;BME280;70270;43.434;28.338;2024-01-16T02:12:59;98548.53;;;9.37;82.32
80853;BME280;70270;43.434;28.338;2024-01-16T02:15:44;98508.44;;;9.22;81.82
80853;BME280;70270;43.434;28.338;2024-01-16T02:18:29;98526.69;;;9.38;81.73
80853;BME280;70270;43.434;28.338;2024-01-16T02:21:25;98520.66;;;9.36;82.42
80853;BME280;70270;43.434;28.338;2024-01-16T02:24:13;98502.91;;;9.29;82.85
80853;BME280;70270;43.434;28.338;2024-01-16T02:27:00;98516.22;;;9.30;82.27
80853;BME280;70270;43.434;28.338;2024-01-16T02:29:44;98523.53;;;9.65;80.89
80853;BME280;70270;43.434;28.338;2024-01-16T02:32:29;98534.13;;;9.78;80.76
80853;BME280;70270;43.434;28.338;2024-01-16T02:35:13;98503.88;;;9.34;80.61
80853;BME280;70270;43.434;28.338;2024-01-16T02:37:59;98551.53;;;10.05;79.73
80853;BME280;70270;43.434;28.338;2024-01-16T02:40:44;98548.50;;;9.90;79.76
80853;BME280;70270;43.434;28.338;2024-01-16T02:43:29;98557.78;;;9.94;80.25
80853;BME280;70270;43.434;28.338;2024-01-16T02:46:14;98526.50;;;9.86;80.26
80853;BME280;70270;43.434;28.338;2024-01-16T02:48:59;98540.72;;;9.82;80.69
80853;BME280;70270;43.434;28.338;2024-01-16T02:51:43;98545.28;;;9.58;81.89
80853;BME280;70270;43.434;28.338;2024-01-16T02:54:28;98548.56;;;9.49;82.27
80853;BME280;70270;43.434;28.338;2024-01-16T02:57:12;98544.69;;;9.68;81.72
80853;BME280;70270;43.434;28.338;2024-01-16T02:59:57;98529.16;;;9.52;81.41
80853;BME280;70270;43.434;28.338;2024-01-16T03:02:44;98460.19;;;8.96;82.76
80853;BME280;70270;43.434;28.338;2024-01-16T03:05:28;98513.75;;;9.40;82.29
80853;BME280;70270;43.434;28.338;2024-01-16T03:08:13;98545.28;;;9.58;82.14
80853;BME280;70270;43.434;28.338;2024-01-16T03:10:57;98536.69;;;9.50;82.27
80853;BME280;70270;43.434;28.338;2024-01-16T03:13:42;98525.72;;;9.33;83.40
80853;BME280;70270;43.434;28.338;2024-01-16T03:16:27;98547.50;;;9.50;83.24
80853;BME280;70270;43.434;28.338;2024-01-16T03:19:12;98505.75;;;9.34;83.31
80853;BME280;70270;43.434;28.338;2024-01-16T03:21:57;98535.31;;;9.59;82.59
80853;BME280;70270;43.434;28.338;2024-01-16T03:24:41;98536.22;;;9.53;83.00
80853;BME280;70270;43.434;28.338;2024-01-16T03:27:26;98508.56;;;9.39;83.47
80853;BME280;70270;43.434;28.338;2024-01-16T03:30:10;98541.75;;;9.46;83.43
80853;BME280;70270;43.434;28.338;2024-01-16T03:32:55;98536.53;;;9.33;84.10
80853;BME280;70270;43.434;28.338;2024-01-16T03:35:40;98501.28;;;9.39;82.73
80853;BME280;70270;43.434;28.338;2024-01-16T03:38:24;98410.66;;;9.25;82.09
80853;BME280;70270;43.434;28.338;2024-01-16T03:41:11;98547.53;;;9.96;81.25
80853;BME280;70270;43.434;28.338;2024-01-16T03:43:56;98554.25;;;10.05;81.29
80853;BME280;70270;43.434;28.338;2024-01-16T03:46:40;98571.75;;;9.91;82.69
80853;BME280;70270;43.434;28.338;2024-01-16T03:49:25;98540.47;;;9.72;82.62
80853;BME280;70270;43.434;28.338;2024-01-16T03:52:10;98583.53;;;9.85;83.04
80853;BME280;70270;43.434;28.338;2024-01-16T03:54:54;98585.19;;;9.86;82.66
80853;BME280;70270;43.434;28.338;2024-01-16T03:57:39;98580.25;;;10.06;81.85
80853;BME280;70270;43.434;28.338;2024-01-16T04:00:24;98583.53;;;9.85;83.34
80853;BME280;70270;43.434;28.338;2024-01-16T04:03:08;98595.41;;;9.96;82.56
80853;BME280;70270;43.434;28.338;2024-01-16T04:05:56;98461.31;;;9.30;81.83
80853;BME280;70270;43.434;28.338;2024-01-16T04:08:40;98604.41;;;10.43;81.54
80853;BME280;70270;43.434;28.338;2024-01-16T04:11:25;98606.16;;;10.25;81.14
80853;BME280;70270;43.434;28.338;2024-01-16T04:14:09;98592.84;;;10.12;81.44
80853;BME280;70270;43.434;28.338;2024-01-16T04:16:53;98623.78;;;10.05;81.83
80853;BME280;70270;43.434;28.338;2024-01-16T04:19:38;98644.38;;;10.06;81.63
80853;BME280;70270;43.434;28.338;2024-01-16T04:22:23;98632.53;;;10.42;80.92
80853;BME280;70270;43.434;28.338;2024-01-16T04:25:07;98614.78;;;10.22;81.28
80853;BME280;70270;43.434;28.338;2024-01-16T04:27:52;98618.75;;;10.43;80.33
80853;BME280;70270;43.434;28.338;2024-01-16T04:30:36;98646.28;;;10.40;79.96
80853;BME280;70270;43.434;28.338;2024-01-16T04:33:21;98552.22;;;9.66;80.47
80853;BME280;70270;43.434;28.338;2024-01-16T04:36:05;98660.19;;;10.32;80.65
80853;BME280;70270;43.434;28.338;2024-01-16T04:38:51;98640.00;;;9.93;81.88
80853;BME280;70270;43.434;28.338;2024-01-16T04:41:35;98556.34;;;9.68;80.71
80853;BME280;70270;43.434;28.338;2024-01-16T04:44:20;98653.94;;;10.31;80.42
80853;BME280;70270;43.434;28.338;2024-01-16T04:47:04;98695.31;;;10.09;81.69
80853;BME280;70270;43.434;28.338;2024-01-16T04:49:49;98688.56;;;10.29;80.77
80853;BME280;70270;43.434;28.338;2024-01-16T04:52:33;98673.13;;;10.76;81.38
80853;BME280;70270;43.434;28.338;2024-01-16T04:55:18;98689.84;;;11.37;80.48
80853;BME280;70270;43.434;28.338;2024-01-16T04:58:02;98705.25;;;11.48;77.53
80853;BME280;70270;43.434;28.338;2024-01-16T05:00:47;98588.56;;;11.14;77.42
80853;BME280;70270;43.434;28.338;2024-01-16T05:03:33;98722.94;;;11.90;73.84
80853;BME280;70270;43.434;28.338;2024-01-16T05:06:17;98698.59;;;12.12;72.29
80853;BME280;70270;43.434;28.338;2024-01-16T05:09:04;98613.84;;;11.77;70.99
80853;BME280;70270;43.434;28.338;2024-01-16T05:11:48;98692.53;;;12.55;70.90
80853;BME280;70270;43.434;28.338;2024-01-16T05:14:33;98734.16;;;12.44;67.10
80853;BME280;70270;43.434;28.338;2024-01-16T05:17:17;98615.34;;;12.01;64.84
80853;BME280;70270;43.434;28.338;2024-01-16T05:20:02;98730.16;;;12.63;61.98
80853;BME280;70270;43.434;28.338;2024-01-16T05:22:52;98602.50;;;11.80;60.81
80853;BME280;70270;43.434;28.338;2024-01-16T05:25:36;98643.16;;;11.91;60.55
80853;BME280;70270;43.434;28.338;2024-01-16T05:28:22;98736.63;;;12.29;60.40
80853;BME280;70270;43.434;28.338;2024-01-16T05:31:09;98619.97;;;11.55;60.20
80853;BME280;70270;43.434;28.338;2024-01-16T05:33:53;98769.56;;;12.32;60.42
80853;BME280;70270;43.434;28.338;2024-01-16T05:36:38;98769.81;;;12.31;59.82
80853;BME280;70270;43.434;28.338;2024-01-16T05:39:22;98741.22;;;11.55;60.43
80853;BME280;70270;43.434;28.338;2024-01-16T05:42:07;98799.84;;;11.33;60.19
80853;BME280;70270;43.434;28.338;2024-01-16T05:44:51;98774.09;;;10.95;59.97
80853;BME280;70270;43.434;28.338;2024-01-16T05:47:38;98668.72;;;9.94;60.08
80853;BME280;70270;43.434;28.338;2024-01-16T05:50:22;98778.50;;;10.43;59.69
80853;BME280;70270;43.434;28.338;2024-01-16T05:53:07;98816.28;;;10.26;59.80
80853;BME280;70270;43.434;28.338;2024-01-16T05:55:51;98802.50;;;10.40;59.98
80853;BME280;70270;43.434;28.338;2024-01-16T05:58:38;98687.03;;;9.92;60.60
80853;BME280;70270;43.434;28.338;2024-01-16T06:01:23;98793.13;;;10.54;59.16
80853;BME280;70270;43.434;28.338;2024-01-16T06:04:08;98810.59;;;10.81;58.82
80853;BME280;70270;43.434;28.338;2024-01-16T06:06:52;98832.47;;;10.68;58.83
80853;BME280;70270;43.434;28.338;2024-01-16T06:09:40;98814.69;;;10.60;57.97
80853;BME280;70270;43.434;28.338;2024-01-16T06:12:24;98846.31;;;10.90;57.98
80853;BME280;70270;43.434;28.338;2024-01-16T06:15:09;98849.81;;;10.67;57.34
80853;BME280;70270;43.434;28.338;2024-01-16T06:17:55;98765.16;;;9.88;57.57
80853;BME280;70270;43.434;28.338;2024-01-16T06:20:40;98850.72;;;10.61;58.07
80853;BME280;70270;43.434;28.338;2024-01-16T06:23:24;98849.69;;;10.32;57.82
80853;BME280;70270;43.434;28.338;2024-01-16T06:26:09;98797.81;;;10.05;58.33
80853;BME280;70270;43.434;28.338;2024-01-16T06:28:54;98895.59;;;10.57;57.90
80853;BME280;70270;43.434;28.338;2024-01-16T06:31:38;98878.28;;;10.58;57.36
80853;BME280;70270;43.434;28.338;2024-01-16T06:34:23;98630.16;;;8.98;56.92
80853;BME280;70270;43.434;28.338;2024-01-16T06:37:07;98889.63;;;10.37;58.29
80853;BME280;70270;43.434;28.338;2024-01-16T06:39:52;98878.06;;;10.29;57.05
80853;BME280;70270;43.434;28.338;2024-01-16T06:42:36;98898.00;;;10.35;56.65
80853;BME280;70270;43.434;28.338;2024-01-16T06:45:21;98898.75;;;10.24;56.33
80853;BME280;70270;43.434;28.338;2024-01-16T06:48:05;98883.34;;;10.06;55.77
80853;BME280;70270;43.434;28.338;2024-01-16T06:50:50;98913.13;;;10.24;55.96
80853;BME280;70270;43.434;28.338;2024-01-16T06:53:34;98899.00;;;10.22;55.72
80853;BME280;70270;43.434;28.338;2024-01-16T06:56:19;98798.50;;;9.53;55.80
80853;BME280;70270;43.434;28.338;2024-01-16T06:59:03;98944.72;;;10.30;56.53
80853;BME280;70270;43.434;28.338;2024-01-16T07:01:48;98914.69;;;10.14;56.27
80853;BME280;70270;43.434;28.338;2024-01-16T07:04:32;98932.22;;;10.29;56.67
80853;BME280;70270;43.434;28.338;2024-01-16T07:07:17;98964.59;;;10.00;56.95
80853;BME280;70270;43.434;28.338;2024-01-16T07:10:02;98981.88;;;9.62;58.59
80853;BME280;70270;43.434;28.338;2024-01-16T07:12:47;98948.22;;;9.58;58.04
80853;BME280;70270;43.434;28.338;2024-01-16T07:15:33;98994.00;;;9.78;58.52
80853;BME280;70270;43.434;28.338;2024-01-16T07:18:17;99005.84;;;9.59;59.37
80853;BME280;70270;43.434;28.338;2024-01-16T07:21:02;99041.19;;;9.57;60.75
80853;BME280;70270;43.434;28.338;2024-01-16T07:23:48;99025.31;;;9.43;60.09
80853;BME280;70270;43.434;28.338;2024-01-16T07:26:32;99037.63;;;9.38;61.39
80853;BME280;70270;43.434;28.338;2024-01-16T07:29:16;99011.78;;;9.18;61.63
80853;BME280;70270;43.434;28.338;2024-01-16T07:32:01;99067.94;;;9.40;62.52
80853;BME280;70270;43.434;28.338;2024-01-16T07:34:45;98982.81;;;9.25;62.19
80853;BME280;70270;43.434;28.338;2024-01-16T07:37:30;99056.63;;;9.25;62.92
80853;BME280;70270;43.434;28.338;2024-01-16T07:40:14;99088.88;;;9.20;62.62
80853;BME280;70270;43.434;28.338;2024-01-16T07:43:01;99087.38;;;8.93;64.21
80853;BME280;70270;43.434;28.338;2024-01-16T07:45:45;99114.00;;;8.83;64.64
80853;BME280;70270;43.434;28.338;2024-01-16T07:48:29;99115.72;;;8.71;64.91
80853;BME280;70270;43.434;28.338;2024-01-16T07:51:14;99110.75;;;8.68;65.04
80853;BME280;70270;43.434;28.338;2024-01-16T07:54:09;99107.94;;;8.36;65.18
80853;BME280;70270;43.434;28.338;2024-01-16T07:56:54;99131.81;;;8.39;65.89
80853;BME280;70270;43.434;28.338;2024-01-16T07:59:38;99101.75;;;8.29;65.58
80853;BME280;70270;43.434;28.338;2024-01-16T08:02:30;99023.50;;;8.03;64.82
80853;BME280;70270;43.434;28.338;2024-01-16T08:05:15;99123.69;;;8.53;64.37
80853;BME280;70270;43.434;28.338;2024-01-16T08:07:59;99151.94;;;8.43;65.06
80853;BME280;70270;43.434;28.338;2024-01-16T08:10:44;99161.91;;;8.50;65.26
80853;BME280;70270;43.434;28.338;2024-01-16T08:13:28;99156.94;;;8.40;65.12
80853;BME280;70270;43.434;28.338;2024-01-16T08:16:13;99147.00;;;7.81;66.11
80853;BME280;70270;43.434;28.338;2024-01-16T08:18:57;99081.03;;;7.58;66.02
80853;BME280;70270;43.434;28.338;2024-01-16T08:21:42;99148.00;;;7.87;65.85
80853;BME280;70270;43.434;28.338;2024-01-16T08:24:26;99190.16;;;8.14;65.72
80853;BME280;70270;43.434;28.338;2024-01-16T08:27:11;99206.34;;;8.14;65.41
80853;BME280;70270;43.434;28.338;2024-01-16T08:29:56;99235.19;;;8.14;65.93
80853;BME280;70270;43.434;28.338;2024-01-16T08:32:40;99242.06;;;8.42;65.20
80853;BME280;70270;43.434;28.338;2024-01-16T08:35:25;99196.19;;;8.29;64.24
80853;BME280;70270;43.434;28.338;2024-01-16T08:38:09;99269.00;;;8.23;65.29
80853;BME280;70270;43.434;28.338;2024-01-16T08:40:54;99256.16;;;8.51;64.79
80853;BME280;70270;43.434;28.338;2024-01-16T08:43:38;99232.47;;;8.20;65.29
80853;BME280;70270;43.434;28.338;2024-01-16T08:46:23;99246.84;;;8.40;64.58
80853;BME280;70270;43.434;28.338;2024-01-16T08:49:07;99245.56;;;8.17;63.74
80853;BME280;70270;43.434;28.338;2024-01-16T08:51:53;99156.72;;;7.76;63.48
80853;BME280;70270;43.434;28.338;2024-01-16T08:54:38;99244.50;;;8.11;62.89
80853;BME280;70270;43.434;28.338;2024-01-16T08:57:23;99264.47;;;8.10;62.84
80853;BME280;70270;43.434;28.338;2024-01-16T09:00:07;99146.53;;;7.51;62.86
80853;BME280;70270;43.434;28.338;2024-01-16T09:02:55;99272.31;;;8.12;62.30
80853;BME280;70270;43.434;28.338;2024-01-16T09:05:39;99284.19;;;8.17;62.21
80853;BME280;70270;43.434;28.338;2024-01-16T09:08:25;99277.31;;;8.08;62.06
80853;BME280;70270;43.434;28.338;2024-01-16T09:11:10;99308.00;;;8.07;62.85
80853;BME280;70270;43.434;28.338;2024-01-16T09:13:55;99277.94;;;8.17;62.71
80853;BME280;70270;43.434;28.338;2024-01-16T09:16:39;99230.19;;;8.04;63.22
80853;BME280;70270;43.434;28.338;2024-01-16T09:19:24;99307.69;;;8.36;62.83
80853;BME280;70270;43.434;28.338;2024-01-16T09:22:09;99323.81;;;8.23;61.88
80853;BME280;70270;43.434;28.338;2024-01-16T09:24:53;99305.19;;;8.41;61.44
80853;BME280;70270;43.434;28.338;2024-01-16T09:27:38;99309.53;;;8.75;61.17
80853;BME280;70270;43.434;28.338;2024-01-16T09:30:22;99295.19;;;8.75;60.66
80853;BME280;70270;43.434;28.338;2024-01-16T09:33:07;99298.47;;;9.03;60.01
80853;BME280;70270;43.434;28.338;2024-01-16T09:35:53;99225.41;;;8.72;60.46
80853;BME280;70270;43.434;28.338;2024-01-16T09:38:38;99326.41;;;9.61;58.90
80853;BME280;70270;43.434;28.338;2024-01-16T09:41:23;99321.25;;;9.47;58.36
80853;BME280;70270;43.434;28.338;2024-01-16T09:44:11;99358.97;;;9.86;56.84
80853;BME280;70270;43.434;28.338;2024-01-16T09:46:57;99330.78;;;9.62;57.42
80853;BME280;70270;43.434;28.338;2024-01-16T09:49:45;99202.84;;;9.11;56.45
80853;BME280;70270;43.434;28.338;2024-01-16T09:52:30;99361.88;;;9.84;55.83
80853;BME280;70270;43.434;28.338;2024-01-16T09:55:15;99232.44;;;8.86;56.61
80853;BME280;70270;43.434;28.338;2024-01-16T09:58:00;99361.53;;;9.68;56.72
80853;BME280;70270;43.434;28.338;2024-01-16T10:00:48;99348.56;;;9.25;56.85
80853;BME280;70270;43.434;28.338;2024-01-16T10:03:34;99370.81;;;9.14;57.37
80853;BME280;70270;43.434;28.338;2024-01-16T10:06:19;99376.63;;;9.24;57.70
80853;BME280;70270;43.434;28.338;2024-01-16T10:09:04;99370.84;;;9.01;58.48
80853;BME280;70270;43.434;28.338;2024-01-16T10:11:48;99370.00;;;9.01;58.61
80853;BME280;70270;43.434;28.338;2024-01-16T10:14:34;99267.38;;;8.28;58.02
80853;BME280;70270;43.434;28.338;2024-01-16T10:17:18;99386.63;;;8.78;59.25
80853;BME280;70270;43.434;28.338;2024-01-16T10:20:04;99384.13;;;9.22;58.87
80853;BME280;70270;43.434;28.338;2024-01-16T10:22:53;99277.53;;;8.99;56.81
80853;BME280;70270;43.434;28.338;2024-01-16T10:25:38;99394.81;;;10.26;56.80
80853;BME280;70270;43.434;28.338;2024-01-16T10:28:22;99276.47;;;9.06;57.04
80853;BME280;70270;43.434;28.338;2024-01-16T10:31:08;99400.50;;;10.49;55.94
80853;BME280;70270;43.434;28.338;2024-01-16T10:33:52;99394.19;;;10.62;54.73
80853;BME280;70270;43.434;28.338;2024-01-16T10:36:37;99432.56;;;10.90;53.33
80853;BME280;70270;43.434;28.338;2024-01-16T10:39:21;99287.84;;;9.72;54.41
80853;BME280;70270;43.434;28.338;2024-01-16T10:42:06;99413.59;;;10.59;53.93
80853;BME280;70270;43.434;28.338;2024-01-16T10:44:54;99425.44;;;10.26;55.18
80853;BME280;70270;43.434;28.338;2024-01-16T10:47:39;99433.31;;;10.35;55.33
80853;BME280;70270;43.434;28.338;2024-01-16T10:50:24;99437.84;;;10.41;55.89
80853;BME280;70270;43.434;28.338;2024-01-16T10:53:08;99442.41;;;10.47;55.38
80853;BME280;70270;43.434;28.338;2024-01-16T10:55:54;99432.81;;;10.82;55.08
80853;BME280;70270;43.434;28.338;2024-01-16T10:58:41;99221.97;;;9.92;54.45
80853;BME280;70270;43.434;28.338;2024-01-16T11:01:28;99430.34;;;11.05;54.20
80853;BME280;70270;43.434;28.338;2024-01-16T11:04:14;99387.53;;;10.58;55.31
80853;BME280;70270;43.434;28.338;2024-01-16T11:06:59;99378.66;;;10.44;54.68
80853;BME280;70270;43.434;28.338;2024-01-16T11:09:44;99419.16;;;11.20;53.15
80853;BME280;70270;43.434;28.338;2024-01-16T11:12:30;99433.53;;;11.20;54.26
80853;BME280;70270;43.434;28.338;2024-01-16T11:15:15;99418.56;;;11.61;52.54
80853;BME280;70270;43.434;28.338;2024-01-16T11:18:00;99447.66;;;12.45;50.95
80853;BME280;70270;43.434;28.338;2024-01-16T11:20:46;99423.09;;;12.22;49.36
80853;BME280;70270;43.434;28.338;2024-01-16T11:23:30;99435.44;;;12.36;48.93
80853;BME280;70270;43.434;28.338;2024-01-16T11:26:31;99450.72;;;12.00;49.73
80853;BME280;70270;43.434;28.338;2024-01-16T11:32:34;99479.91;;;11.87;50.75
80853;BME280;70270;43.434;28.338;2024-01-16T11:35:32;99475.81;;;11.53;51.85
80853;BME280;70270;43.434;28.338;2024-01-16T11:38:17;99408.69;;;11.23;51.51
80853;BME280;70270;43.434;28.338;2024-01-16T11:41:03;99494.75;;;11.84;50.36
80853;BME280;70270;43.434;28.338;2024-01-16T11:43:47;99499.16;;;12.03;49.06
80853;BME280;70270;43.434;28.338;2024-01-16T11:47:01;99498.63;;;12.13;49.57
80853;BME280;70270;43.434;28.338;2024-01-16T11:50:08;99520.34;;;11.95;49.13
80853;BME280;70270;43.434;28.338;2024-01-16T11:52:55;99404.91;;;11.49;49.08
80853;BME280;70270;43.434;28.338;2024-01-16T11:59:14;99535.81;;;11.94;48.19
80853;BME280;70270;43.434;28.338;2024-01-16T12:02:10;99541.81;;;11.78;48.64
80853;BME280;70270;43.434;28.338;2024-01-16T12:04:58;99543.31;;;11.43;48.41
80853;BME280;70270;43.434;28.338;2024-01-16T12:07:52;99544.53;;;11.78;48.88
80853;BME280;70270;43.434;28.338;2024-01-16T12:10:46;99552.31;;;11.43;48.84
80853;BME280;70270;43.434;28.338;2024-01-16T12:13:33;99559.88;;;11.35;47.63
80853;BME280;70270;43.434;28.338;2024-01-16T12:16:18;99565.19;;;11.48;47.00
80853;BME280;70270;43.434;28.338;2024-01-16T12:19:10;99583.50;;;11.59;47.52
80853;BME280;70270;43.434;28.338;2024-01-16T12:21:57;99568.16;;;11.15;46.92
80853;BME280;70270;43.434;28.338;2024-01-16T12:24:41;99597.13;;;11.77;45.93
80853;BME280;70270;43.434;28.338;2024-01-16T12:27:26;99580.31;;;12.84;44.35
80853;BME280;70270;43.434;28.338;2024-01-16T12:30:11;99595.97;;;14.01;41.59
80853;BME280;70270;43.434;28.338;2024-01-16T12:33:04;99594.91;;;15.29;37.95
80853;BME280;70270;43.434;28.338;2024-01-16T12:36:00;99605.03;;;16.78;35.81
80853;BME280;70270;43.434;28.338;2024-01-16T12:38:54;99599.97;;;18.21;33.04
80853;BME280;70270;43.434;28.338;2024-01-16T12:41:41;99602.75;;;19.40;31.11
80853;BME280;70270;43.434;28.338;2024-01-16T12:44:28;99583.59;;;20.06;29.32
80853;BME280;70270;43.434;28.338;2024-01-16T12:47:15;99620.06;;;18.68;29.11
80853;BME280;70270;43.434;28.338;2024-01-16T12:50:00;99611.47;;;19.12;28.73
80853;BME280;70270;43.434;28.338;2024-01-16T12:52:45;99631.75;;;19.88;28.29
80853;BME280;70270;43.434;28.338;2024-01-16T12:55:30;99618.00;;;18.96;27.28
80853;BME280;70270;43.434;28.338;2024-01-16T12:58:18;99633.69;;;18.58;29.12
80853;BME280;70270;43.434;28.338;2024-01-16T13:04:06;99631.66;;;18.86;27.74
80853;BME280;70270;43.434;28.338;2024-01-16T13:07:01;99653.03;;;18.05;27.35
80853;BME280;70270;43.434;28.338;2024-01-16T13:09:46;99651.19;;;18.15;27.42
80853;BME280;70270;43.434;28.338;2024-01-16T13:12:31;99654.81;;;18.21;26.94
80853;BME280;70270;43.434;28.338;2024-01-16T13:15:17;99671.00;;;16.77;28.69
80853;BME280;70270;43.434;28.338;2024-01-16T13:18:02;99655.25;;;16.34;29.20
80853;BME280;70270;43.434;28.338;2024-01-16T13:20:46;99673.31;;;16.68;29.18
80853;BME280;70270;43.434;28.338;2024-01-16T13:23:31;99692.34;;;16.13;30.26
80853;BME280;70270;43.434;28.338;2024-01-16T13:26:16;99625.84;;;15.74;29.91
80853;BME280;70270;43.434;28.338;2024-01-16T13:29:00;99661.28;;;16.53;29.83
80853;BME280;70270;43.434;28.338;2024-01-16T13:31:45;99555.38;;;15.93;30.36
80853;BME280;70270;43.434;28.338;2024-01-16T13:34:29;99693.03;;;16.37;30.82
80853;BME280;70270;43.434;28.338;2024-01-16T13:37:21;99706.94;;;17.24;30.09
80853;BME280;70270;43.434;28.338;2024-01-16T13:40:06;99709.69;;;18.21;28.67
80853;BME280;70270;43.434;28.338;2024-01-16T13:42:59;99725.41;;;19.04;27.67
80853;BME280;70270;43.434;28.338;2024-01-16T13:45:44;99717.84;;;18.48;27.87
80853;BME280;70270;43.434;28.338;2024-01-16T13:48:29;99721.81;;;18.57;27.97
80853;BME280;70270;43.434;28.338;2024-01-16T13:51:14;99620.50;;;17.87;28.07
80853;BME280;70270;43.434;28.338;2024-01-16T13:53:59;99725.88;;;16.70;28.77
80853;BME280;70270;43.434;28.338;2024-01-16T13:56:44;99749.69;;;16.08;29.46
80853;BME280;70270;43.434;28.338;2024-01-16T13:59:30;99753.34;;;15.85;31.04
80853;BME280;70270;43.434;28.338;2024-01-16T14:02:15;99633.34;;;14.47;31.45
80853;BME280;70270;43.434;28.338;2024-01-16T14:04:59;99749.09;;;15.26;31.79
80853;BME280;70270;43.434;28.338;2024-01-16T14:07:51;99782.88;;;14.02;33.95
80853;BME280;70270;43.434;28.338;2024-01-16T14:10:36;99790.47;;;13.34;35.35
80853;BME280;70270;43.434;28.338;2024-01-16T14:13:20;99792.78;;;13.12;35.77
80853;BME280;70270;43.434;28.338;2024-01-16T14:16:05;99669.72;;;11.88;35.51
80853;BME280;70270;43.434;28.338;2024-01-16T14:18:49;99798.53;;;12.55;34.77
80853;BME280;70270;43.434;28.338;2024-01-16T14:21:34;99805.31;;;12.46;35.36
80853;BME280;70270;43.434;28.338;2024-01-16T14:24:19;99596.00;;;11.28;35.14
80853;BME280;70270;43.434;28.338;2024-01-16T14:27:03;99855.38;;;12.56;34.99
80853;BME280;70270;43.434;28.338;2024-01-16T14:29:48;99687.13;;;12.05;34.50
80853;BME280;70270;43.434;28.338;2024-01-16T14:32:33;99856.53;;;13.23;34.44
80853;BME280;70270;43.434;28.338;2024-01-16T14:35:17;99852.53;;;13.62;33.39
80853;BME280;70270;43.434;28.338;2024-01-16T14:38:04;99855.78;;;13.34;33.05
80853;BME280;70270;43.434;28.338;2024-01-16T14:40:48;99854.81;;;12.48;34.23